Time;durP1;ratioP1;P1;durP2;ratioP2;P2;SDS_P1;SDS_P2;PMS_P1;PMS_P2;Temp;Humidity;BMP_temperature;BMP_pressure;BME280_temperature;BME280_humidity;BME280_pressure;Samples;Min_cycle;Max_cycle;Signal;HPM_P1;HPM_P2
2022/06/07 00:02:15;;;;;;;;;;;;;;;22.40;57.93;100905.13;4957101;28;4187;-58
2022/06/07 00:04:41;;;;;;;;;;;;;;;22.41;57.73;100903.72;4959563;28;4219;-57
2022/06/07 00:07:08;;;;;;;;;;;;;;;22.41;57.99;100901.56;4949927;28;4657;-57
2022/06/07 00:09:34;;;;;;;;;;;;;;;22.40;57.47;100905.84;4960693;28;4066;-59
2022/06/07 00:12:00;;;;;;;;;;;;;;;22.40;57.84;100905.84;4961846;28;4197;-58
2022/06/07 00:14:27;;;;;;;;;;;;;;;22.40;57.78;100902.97;4961360;28;4206;-59
2022/06/07 00:16:56;;;;;;;;;;;;;;;22.41;57.53;100900.84;4959572;28;4165;-59
2022/06/07 00:19:23;;;;;;;;;;;;;;;22.42;57.86;100905.19;4956884;28;4250;-58
2022/06/07 00:21:49;;;;;;;;;;;;;;;22.38;57.84;100897.88;4962658;28;5271;-59
2022/06/07 00:24:16;;;;;;;;;;;;;;;22.40;57.75;100897.19;4958752;28;4255;-58
2022/06/07 00:26:42;;;;;;;;;;;;;;;22.40;57.47;100902.97;4962481;28;4250;-59
2022/06/07 00:29:08;;;;;;;;;;;;;;;22.39;57.77;100892.84;4958162;28;5263;-59
2022/06/07 00:31:35;;;;;;;;;;;;;;;22.40;57.44;100897.19;4959005;28;5288;-59
2022/06/07 00:34:04;;;;;;;;;;;;;;;22.38;57.31;100891.38;4961856;28;5572;-59
2022/06/07 00:36:30;;;;;;;;;;;;;;;22.40;57.70;100896.47;4957862;28;4066;-58
2022/06/07 00:38:56;;;;;;;;;;;;;;;22.39;57.53;100895.72;4959621;28;5015;-58
2022/06/07 00:41:23;;;;;;;;;;;;;;;22.40;57.62;100890.69;4961412;28;4220;-59
2022/06/07 00:44:08;;;;;;;;;;;;;;;22.38;57.67;100891.38;4961079;28;5311;-59
2022/06/07 00:46:34;;;;;;;;;;;;;;;22.39;57.62;100895.72;4964221;28;4214;-58
2022/06/07 00:49:01;;;;;;;;;;;;;;;22.38;57.37;100885.59;4952207;28;5301;-59
2022/06/07 00:51:27;;;;;;;;;;;;;;;22.37;57.64;100892.75;4954810;28;4194;-58
2022/06/07 00:53:54;;;;;;;;;;;;;;;22.38;57.55;100885.59;4959570;28;4255;-60
2022/06/07 00:56:27;;;;;;;;;;;;;;;22.36;57.53;100888.41;4976304;28;4228;-59
2022/06/07 00:58:53;;;;;;;;;;;;;;;22.38;57.58;100894.25;4972622;28;4316;-58
2022/06/07 01:01:21;;;;;;;;;;;;;;;22.37;57.58;100889.88;4956651;28;4186;-58
2022/06/07 01:03:50;;;;;;;;;;;;;;;22.37;57.57;100889.88;4974907;28;4481;-58
2022/06/07 01:11:47;;;;;;;;;;;;;;;22.36;57.55;100871.09;4968607;28;4310;-59
2022/06/07 01:14:15;;;;;;;;;;;;;;;22.35;57.61;100876.09;4949431;28;4157;-58
2022/06/07 01:16:42;;;;;;;;;;;;;;;22.35;57.51;100876.09;4961774;28;4247;-58
2022/06/07 01:19:10;;;;;;;;;;;;;;;22.35;57.50;100872.47;4975783;28;4864;-59
2022/06/07 01:21:43;;;;;;;;;;;;;;;22.35;57.22;100866.72;4953638;28;4251;-58
2022/06/07 01:24:10;;;;;;;;;;;;;;;22.36;57.33;100876.84;4954966;28;5260;-59
2022/06/07 01:26:40;;;;;;;;;;;;;;;22.35;57.45;100869.59;4954902;28;6463;-58
2022/06/07 01:29:08;;;;;;;;;;;;;;;22.35;57.44;100866.72;4947406;28;5291;-58
2022/06/07 01:31:34;;;;;;;;;;;;;;;22.34;57.23;100860.22;4951220;28;4259;-59
2022/06/07 01:34:01;;;;;;;;;;;;;;;22.35;57.47;100860.94;4949718;28;4230;-58
2022/06/07 01:36:27;;;;;;;;;;;;;;;22.34;57.33;100868.84;4956482;28;4268;-59
2022/06/07 01:41:54;;;;;;;;;;;;;;;22.34;57.49;100865.97;4951909;28;4131;-57
2022/06/07 01:44:27;;;;;;;;;;;;;;;22.33;57.09;100863.75;4948274;28;5180;-58
2022/06/07 01:46:55;;;;;;;;;;;;;;;22.33;57.21;100855.09;4973360;28;4157;-58
2022/06/07 01:49:23;;;;;;;;;;;;;;;22.32;57.32;100853.63;4956239;28;4252;-59
2022/06/07 01:51:52;;;;;;;;;;;;;;;22.33;57.11;100855.09;4952429;28;4239;-59
2022/06/07 01:54:20;;;;;;;;;;;;;;;22.33;57.34;100860.84;4950715;28;4184;-58
2022/06/07 01:56:47;;;;;;;;;;;;;;;22.32;57.28;100853.63;4950761;28;4105;-60
2022/06/07 01:59:13;;;;;;;;;;;;;;;22.32;57.35;100853.63;4957282;28;4356;-58
2022/06/07 02:01:40;;;;;;;;;;;;;;;22.32;57.04;100863.00;4952590;28;4263;-59
2022/06/07 02:04:08;;;;;;;;;;;;;;;22.31;57.31;100860.78;4963176;28;5520;-59
2022/06/07 02:06:34;;;;;;;;;;;;;;;22.31;57.34;100857.88;4955195;28;4097;-59
2022/06/07 02:09:01;;;;;;;;;;;;;;;22.29;57.35;100860.72;4948261;28;4177;-59
2022/06/07 02:11:27;;;;;;;;;;;;;;;22.30;57.08;100862.19;4956781;28;4236;-58
2022/06/07 02:14:01;;;;;;;;;;;;;;;22.30;57.28;100862.19;4951839;28;5204;-58
2022/06/07 02:16:27;;;;;;;;;;;;;;;22.28;57.33;100862.13;4949680;28;4301;-59
2022/06/07 02:18:54;;;;;;;;;;;;;;;22.29;57.61;100861.47;4944715;28;4201;-59
2022/06/07 02:21:27;;;;;;;;;;;;;;;22.28;57.07;100859.22;4942068;28;4166;-59
2022/06/07 02:23:55;;;;;;;;;;;;;;;22.26;57.36;100851.22;4951594;28;4302;-59
2022/06/07 02:26:27;;;;;;;;;;;;;;;22.29;57.01;100854.97;4953786;28;4162;-59
2022/06/07 02:28:55;;;;;;;;;;;;;;;22.28;57.22;100850.56;4950684;28;4206;-58
2022/06/07 02:31:22;;;;;;;;;;;;;;;22.29;57.31;100863.59;4955923;28;5513;-58
2022/06/07 02:33:48;;;;;;;;;;;;;;;22.28;57.29;100859.22;4951059;28;4524;-60
2022/06/07 02:36:14;;;;;;;;;;;;;;;22.28;57.26;100850.56;4960746;28;4247;-58
2022/06/07 02:38:41;;;;;;;;;;;;;;;22.27;56.87;100852.72;4948415;28;4240;-59
2022/06/07 02:41:08;;;;;;;;;;;;;;;22.27;57.01;100857.75;4954479;28;4220;-59
2022/06/07 02:43:34;;;;;;;;;;;;;;;22.27;57.19;100854.88;4952646;28;4256;-58
2022/06/07 02:46:00;;;;;;;;;;;;;;;22.27;57.02;100857.75;4968309;28;5255;-59
2022/06/07 02:48:27;;;;;;;;;;;;;;;22.26;57.28;100857.00;4958991;28;5478;-59
2022/06/07 02:50:54;;;;;;;;;;;;;;;22.27;57.13;100852.00;4951192;28;4208;-58
2022/06/07 02:53:21;;;;;;;;;;;;;;;22.26;57.25;100856.25;4952972;28;6518;-58
2022/06/07 02:55:48;;;;;;;;;;;;;;;22.26;57.14;100862.75;4953988;28;4233;-59
2022/06/07 02:58:19;;;;;;;;;;;;;;;22.26;56.89;100856.25;4945428;28;4214;-58
2022/06/07 03:00:47;;;;;;;;;;;;;;;22.26;57.12;100850.50;4951303;28;4207;-58
2022/06/07 03:03:16;;;;;;;;;;;;;;;22.26;57.12;100856.25;4962255;28;4226;-58
2022/06/07 03:05:44;;;;;;;;;;;;;;;22.25;57.08;100857.69;4954988;28;4220;-58
2022/06/07 03:08:18;;;;;;;;;;;;;;;22.25;57.07;100834.59;4950919;28;5262;-58
2022/06/07 03:10:46;;;;;;;;;;;;;;;22.25;57.14;100846.13;4953241;28;6511;-59
2022/06/07 03:13:13;;;;;;;;;;;;;;;22.24;56.87;100844.66;4970094;28;5913;-58
2022/06/07 03:15:40;;;;;;;;;;;;;;;22.24;57.05;100847.53;4958986;28;4168;-58
2022/06/07 03:18:06;;;;;;;;;;;;;;;22.24;56.83;100853.28;4949373;28;4163;-58
2022/06/07 03:20:37;;;;;;;;;;;;;;;22.24;56.98;100859.06;4947312;28;5211;-59
2022/06/07 03:23:04;;;;;;;;;;;;;;;22.23;56.82;100866.25;4953927;28;4801;-58
2022/06/07 03:25:30;;;;;;;;;;;;;;;22.24;56.94;100859.06;4953809;28;4275;-58
2022/06/07 03:28:01;;;;;;;;;;;;;;;22.20;57.08;100871.19;4950631;28;4095;-59
2022/06/07 03:30:28;;;;;;;;;;;;;;;22.24;57.09;100867.72;4955803;28;4184;-59
2022/06/07 03:32:55;;;;;;;;;;;;;;;22.22;57.02;100868.41;4963990;28;4226;-58
2022/06/07 03:35:25;;;;;;;;;;;;;;;22.22;56.54;100868.41;4955529;28;4246;-57
2022/06/07 03:37:52;;;;;;;;;;;;;;;22.22;56.89;100868.41;4959078;28;4222;-58
2022/06/07 03:43:07;;;;;;;;;;;;;;;22.23;56.76;100874.91;4972342;28;3998;-58
2022/06/07 03:45:34;;;;;;;;;;;;;;;22.22;56.87;100871.28;4969880;28;4288;-57
2022/06/07 03:48:02;;;;;;;;;;;;;;;22.22;56.74;100873.41;4954771;28;5072;-57
2022/06/07 03:50:28;;;;;;;;;;;;;;;22.22;56.55;100876.28;4975355;28;4234;-58
2022/06/07 03:52:55;;;;;;;;;;;;;;;22.21;56.98;100872.66;4956137;28;5556;-58
2022/06/07 03:55:22;;;;;;;;;;;;;;;22.22;56.73;100873.41;4956417;28;5609;-58
2022/06/07 03:58:03;;;;;;;;;;;;;;;22.21;56.69;100877.69;4948207;28;4275;-57
2022/06/07 04:00:30;;;;;;;;;;;;;;;22.20;56.50;100876.94;4956415;28;4048;-57
2022/06/07 04:02:58;;;;;;;;;;;;;;;22.20;56.80;100876.22;4955500;28;4328;-58
2022/06/07 04:05:24;;;;;;;;;;;;;;;22.20;56.51;100873.31;4960592;28;5554;-57
2022/06/07 04:08:10;;;;;;;;;;;;;;;22.18;56.76;100868.94;4955989;28;4343;-58
2022/06/07 04:10:52;;;;;;;;;;;;;;;22.18;56.52;100871.09;4946563;28;5578;-58
2022/06/07 04:13:23;;;;;;;;;;;;;;;22.18;56.75;100863.16;4946544;28;4198;-57
2022/06/07 04:15:53;;;;;;;;;;;;;;;22.18;56.57;100863.16;4967242;28;4109;-57
2022/06/07 04:18:19;;;;;;;;;;;;;;;22.18;56.65;100862.44;4955372;28;4093;-57
2022/06/07 04:20:46;;;;;;;;;;;;;;;22.19;56.50;100858.13;4944139;28;4454;-57
2022/06/07 04:23:14;;;;;;;;;;;;;;;22.18;56.42;100860.28;4944482;28;4524;-58
2022/06/07 04:25:41;;;;;;;;;;;;;;;22.17;56.66;100864.59;4952612;28;4252;-58
2022/06/07 04:28:10;;;;;;;;;;;;;;;22.17;56.33;100867.47;4948622;28;4250;-58
2022/06/07 04:30:37;;;;;;;;;;;;;;;22.17;56.58;100866.72;4958078;28;4307;-58
2022/06/07 04:33:04;;;;;;;;;;;;;;;22.18;56.46;100868.94;4956234;28;4230;-58
2022/06/07 04:35:31;;;;;;;;;;;;;;;22.17;56.30;100869.59;4956957;28;4160;-57
2022/06/07 04:38:01;;;;;;;;;;;;;;;22.16;56.63;100865.97;4944882;28;4236;-58
2022/06/07 04:40:33;;;;;;;;;;;;;;;22.16;56.65;100874.63;4946811;28;4270;-56
2022/06/07 04:43:01;;;;;;;;;;;;;;;22.17;56.60;100870.34;4957393;28;5565;-57
2022/06/07 04:45:31;;;;;;;;;;;;;;;22.18;56.40;100873.97;4954379;28;4300;-57
2022/06/07 04:48:10;;;;;;;;;;;;;;;22.16;56.60;100871.75;4969039;28;4194;-57
2022/06/07 04:51:05;;;;;;;;;;;;;;;22.16;56.27;100868.84;4947206;28;4345;-58
2022/06/07 04:53:37;;;;;;;;;;;;;;;22.16;56.18;100860.22;4948212;28;4070;-57
2022/06/07 04:56:07;;;;;;;;;;;;;;;22.16;56.58;100857.31;4950081;28;4217;-58
2022/06/07 04:58:33;;;;;;;;;;;;;;;22.16;56.51;100857.31;4959726;28;4268;-57
2022/06/07 05:01:00;;;;;;;;;;;;;;;22.16;56.37;100860.22;4969397;28;4241;-57
2022/06/07 05:03:26;;;;;;;;;;;;;;;22.16;56.56;100865.25;4957200;28;4245;-58
2022/06/07 05:05:53;;;;;;;;;;;;;;;22.17;56.19;100866.72;4946394;28;5269;-58
2022/06/07 05:08:20;;;;;;;;;;;;;;;22.15;56.35;100864.50;4959960;28;4098;-58
2022/06/07 05:10:48;;;;;;;;;;;;;;;22.16;56.55;100865.97;4950413;28;4160;-63
2022/06/07 05:13:15;;;;;;;;;;;;;;;22.16;56.34;100863.09;4952088;28;4231;-57
2022/06/07 05:15:42;;;;;;;;;;;;;;;22.16;56.45;100863.09;4953307;28;4828;-57
2022/06/07 05:18:14;;;;;;;;;;;;;;;22.16;56.37;100871.75;4955907;28;6058;-56
2022/06/07 05:20:44;;;;;;;;;;;;;;;22.15;56.57;100867.38;4946235;28;4253;-62
2022/06/07 05:23:13;;;;;;;;;;;;;;;22.16;56.65;100865.97;4970844;28;4145;-62
2022/06/07 05:25:58;;;;;;;;;;;;;;;22.15;56.43;100864.50;4953424;28;4224;-62
2022/06/07 05:28:24;;;;;;;;;;;;;;;22.15;56.47;100863.75;4955070;28;4342;-62
2022/06/07 05:30:51;;;;;;;;;;;;;;;22.16;56.51;100868.84;4955813;28;5273;-63
2022/06/07 05:33:22;;;;;;;;;;;;;;;22.16;56.30;100876.78;4960104;28;4386;-63
2022/06/07 05:35:53;;;;;;;;;;;;;;;22.17;56.27;100884.78;4954260;28;4996;-62
2022/06/07 05:38:21;;;;;;;;;;;;;;;22.16;56.26;100882.53;4959492;28;4189;-62
2022/06/07 05:40:55;;;;;;;;;;;;;;;22.16;56.44;100880.41;4951251;28;4194;-63
2022/06/07 05:43:25;;;;;;;;;;;;;;;22.16;56.11;100889.06;4968533;28;4233;-62
2022/06/07 05:45:57;;;;;;;;;;;;;;;21.88;55.75;100879.28;4971803;28;4234;-60
2022/06/07 05:48:46;;;;;;;;;;;;;;;21.88;55.78;100893.69;4955217;28;4315;-59
2022/06/07 05:51:17;;;;;;;;;;;;;;;21.96;55.48;100888.25;4957308;28;4240;-57
2022/06/07 05:53:45;;;;;;;;;;;;;;;22.03;55.89;100892.09;4952894;28;4204;-57
2022/06/07 05:56:13;;;;;;;;;;;;;;;22.06;56.04;100885.78;4972275;28;5280;-60
2022/06/07 05:58:40;;;;;;;;;;;;;;;22.10;55.74;100896.72;4956203;28;4568;-59
2022/06/07 06:01:10;;;;;;;;;;;;;;;22.12;56.01;100905.44;4973111;28;5527;-58
2022/06/07 06:03:40;;;;;;;;;;;;;;;22.12;56.06;100894.66;4954782;28;4094;-58
2022/06/07 06:06:10;;;;;;;;;;;;;;;22.13;55.78;100896.16;4964343;28;4153;-57
2022/06/07 06:11:31;;;;;;;;;;;;;;;22.15;56.14;100901.25;4950949;28;4205;-60
2022/06/07 06:14:23;;;;;;;;;;;;;;;22.14;55.83;100900.50;4952038;28;4196;-60
2022/06/07 06:16:57;;;;;;;;;;;;;;;22.15;56.03;100904.88;4955607;28;4256;-59
2022/06/07 06:19:30;;;;;;;;;;;;;;;22.16;55.76;100897.69;4968641;28;5340;-59
2022/06/07 06:21:58;;;;;;;;;;;;;;;21.48;53.94;100905.00;4957996;28;5486;-60
2022/06/07 06:24:27;;;;;;;;;;;;;;;21.41;54.09;100906.16;4949765;28;5591;-60
2022/06/07 06:26:56;;;;;;;;;;;;;;;21.51;57.31;100903.72;4954385;28;6479;-60
2022/06/07 06:29:26;;;;;;;;;;;;;;;21.73;56.32;100907.50;4944175;28;5468;-61
2022/06/07 06:31:54;;;;;;;;;;;;;;;21.80;54.34;100899.84;4949847;28;4214;-65
2022/06/07 06:34:23;;;;;;;;;;;;;;;21.98;53.98;100907.78;4964919;28;4319;-75
2022/06/07 06:36:50;;;;;;;;;;;;;;;22.05;53.64;100913.13;4971119;28;4262;-73
2022/06/07 06:39:23;;;;;;;;;;;;;;;22.10;52.90;100900.34;4953332;28;4260;-69
2022/06/07 06:41:51;;;;;;;;;;;;;;;22.18;53.01;100903.56;4962230;28;4195;-67
2022/06/07 06:44:24;;;;;;;;;;;;;;;22.22;53.15;100905.13;4959205;28;4313;-66
2022/06/07 06:46:53;;;;;;;;;;;;;;;22.25;53.42;100906.72;4968140;28;5508;-67
2022/06/07 06:49:20;;;;;;;;;;;;;;;22.29;52.84;100904.00;4959589;28;4208;-71
2022/06/07 06:51:47;;;;;;;;;;;;;;;22.30;52.70;100903.31;4966165;28;4278;-68
2022/06/07 06:54:16;;;;;;;;;;;;;;;22.33;52.30;100907.00;4970070;28;4359;-69
2022/06/07 06:56:51;;;;;;;;;;;;;;;22.29;51.73;100912.66;4959816;28;5275;-69
2022/06/07 06:59:23;;;;;;;;;;;;;;;22.34;51.98;100906.34;4954033;28;4970;-69
2022/06/07 07:01:54;;;;;;;;;;;;;;;22.33;51.93;100907.00;4958353;28;4197;-70
2022/06/07 07:04:23;;;;;;;;;;;;;;;22.30;51.26;100902.56;4977616;28;4145;-66
2022/06/07 07:06:51;;;;;;;;;;;;;;;22.25;51.62;100900.94;4976134;28;5308;-70
2022/06/07 07:09:22;;;;;;;;;;;;;;;22.34;51.75;100900.59;4953788;28;4073;-72
2022/06/07 07:11:56;;;;;;;;;;;;;;;22.45;52.36;100898.84;4962327;28;4259;-72
2022/06/07 07:14:46;;;;;;;;;;;;;;;22.50;52.51;100900.47;4951728;28;4451;-71
2022/06/07 07:17:18;;;;;;;;;;;;;;;22.54;52.63;100897.75;4949672;28;4222;-71
2022/06/07 07:19:48;;;;;;;;;;;;;;;22.54;52.22;100891.97;4955632;28;4165;-69
2022/06/07 07:22:16;;;;;;;;;;;;;;;22.55;52.08;100899.22;4974327;28;4223;-72
2022/06/07 07:24:42;;;;;;;;;;;;;;;22.56;52.29;100894.94;4966261;28;4197;-70
2022/06/07 07:27:11;;;;;;;;;;;;;;;22.57;52.92;100896.41;4952514;28;4146;-73
2022/06/07 07:29:39;;;;;;;;;;;;;;;22.62;52.85;100890.81;4959156;28;5299;-75
2022/06/07 07:32:11;;;;;;;;;;;;;;;22.67;52.82;100892.44;4950017;28;4022;-73
2022/06/07 07:34:46;;;;;;;;;;;;;;;22.72;52.47;100891.16;4952338;28;4066;-75
2022/06/07 07:37:13;;;;;;;;;;;;;;;22.69;52.83;100895.41;4969686;28;5800;-71
2022/06/07 07:39:40;;;;;;;;;;;;;;;22.71;53.20;100895.47;4956385;28;4194;-68
2022/06/07 07:42:12;;;;;;;;;;;;;;;22.81;52.91;100887.19;4959553;28;4164;-67
2022/06/07 07:44:44;;;;;;;;;;;;;;;22.98;52.12;100889.25;4967464;28;4187;-68
2022/06/07 07:47:10;;;;;;;;;;;;;;;23.04;52.00;100885.13;4955567;28;4199;-69
2022/06/07 07:49:40;;;;;;;;;;;;;;;23.09;51.91;100873.06;4956122;28;4205;-71
2022/06/07 07:52:08;;;;;;;;;;;;;;;23.28;51.80;100880.22;4965108;28;4229;-68
2022/06/07 07:54:35;;;;;;;;;;;;;;;23.26;51.69;100882.28;4971898;28;4334;-62
2022/06/07 07:57:05;;;;;;;;;;;;;;;22.89;49.80;100884.59;4967136;28;4271;-61
2022/06/07 07:59:38;;;;;;;;;;;;;;;22.75;50.04;100893.47;4957856;28;4138;-61
2022/06/07 08:02:06;;;;;;;;;;;;;;;22.67;49.70;100884.50;4980578;28;5180;-60
2022/06/07 08:04:33;;;;;;;;;;;;;;;22.61;49.25;100889.31;4958071;28;5359;-60
2022/06/07 08:07:00;;;;;;;;;;;;;;;22.58;49.29;100885.59;4952387;28;6267;-60
2022/06/07 08:09:26;;;;;;;;;;;;;;;22.55;49.67;100884.78;4960972;28;5300;-59
2022/06/07 08:11:53;;;;;;;;;;;;;;;22.62;49.08;100879.25;4957141;28;4161;-59
2022/06/07 08:14:20;;;;;;;;;;;;;;;22.70;48.34;100879.53;4961536;28;4227;-60
2022/06/07 08:16:46;;;;;;;;;;;;;;;22.70;48.52;100879.53;4957515;28;4286;-59
2022/06/07 08:19:13;;;;;;;;;;;;;;;22.72;48.63;100876.75;4959954;28;4248;-59
2022/06/07 08:21:39;;;;;;;;;;;;;;;22.81;48.66;100884.28;4959700;28;5388;-59
2022/06/07 08:24:06;;;;;;;;;;;;;;;22.96;48.36;100876.91;4957269;28;5352;-57
2022/06/07 08:26:32;;;;;;;;;;;;;;;23.03;48.65;100880.78;4958982;28;4267;-58
2022/06/07 08:28:59;;;;;;;;;;;;;;;23.06;48.83;100873.66;4958975;28;5435;-60
2022/06/07 08:31:26;;;;;;;;;;;;;;;22.96;48.94;100871.84;4960150;28;5385;-60
2022/06/07 08:39:25;;;;;;;;;;;;;;;23.23;48.46;100864.16;4952810;28;5342;-61
2022/06/07 08:41:52;;;;;;;;;;;;;;;23.27;48.49;100858.50;4962394;28;4238;-60
2022/06/07 08:44:30;;;;;;;;;;;;;;;23.30;48.48;100860.06;4955911;28;4621;-60
2022/06/07 08:46:58;;;;;;;;;;;;;;;23.32;48.43;100862.25;4954256;28;4344;-60
2022/06/07 08:49:25;;;;;;;;;;;;;;;23.31;48.52;100860.78;4974481;28;4267;-61
2022/06/07 08:51:53;;;;;;;;;;;;;;;23.29;48.62;100854.94;4958167;28;4250;-60
2022/06/07 08:54:22;;;;;;;;;;;;;;;23.25;48.15;100849.03;4953703;28;4439;-60
2022/06/07 08:56:49;;;;;;;;;;;;;;;23.31;47.16;100841.31;4948864;28;4361;-60
2022/06/07 08:59:17;;;;;;;;;;;;;;;23.13;47.73;100832.03;4945833;28;4174;-64
2022/06/07 09:01:47;;;;;;;;;;;;;;;23.02;48.15;100841.72;4958279;28;2853;-65
2022/06/07 09:04:16;;;;;;;;;;;;;;;22.93;48.29;100832.78;4963350;28;4253;-65
2022/06/07 09:06:43;;;;;;;;;;;;;;;22.89;48.75;100832.63;4961706;28;5534;-65
2022/06/07 09:09:10;;;;;;;;;;;;;;;22.87;48.42;100823.88;4958583;28;5413;-60
2022/06/07 09:14:36;;;;;;;;;;;;;;;22.86;48.67;100827.44;4957635;28;5655;-59
2022/06/07 09:17:02;;;;;;;;;;;;;;;22.85;48.44;100820.91;4961128;28;4942;-59
2022/06/07 09:19:29;;;;;;;;;;;;;;;22.80;48.55;100822.19;4961748;28;4121;-58
2022/06/07 09:21:58;;;;;;;;;;;;;;;22.95;48.46;100812.63;4957846;28;4609;-60
2022/06/07 09:24:27;;;;;;;;;;;;;;;23.11;47.67;100814.63;4957843;28;4623;-65
2022/06/07 09:27:02;;;;;;;;;;;;;;;23.16;47.78;100801.81;4967772;28;5313;-66
2022/06/07 09:29:28;;;;;;;;;;;;;;;23.21;47.97;100809.19;4962817;28;5625;-67
2022/06/07 09:31:55;;;;;;;;;;;;;;;23.19;47.99;100800.47;4959088;28;4182;-64
2022/06/07 09:34:25;;;;;;;;;;;;;;;23.23;47.88;100800.59;4967539;28;4208;-60
2022/06/07 09:36:54;;;;;;;;;;;;;;;23.24;47.78;100796.28;4964936;28;4200;-60
2022/06/07 09:39:25;;;;;;;;;;;;;;;23.28;47.98;100790.66;4960805;28;5738;-59
2022/06/07 09:41:52;;;;;;;;;;;;;;;23.30;47.87;100787.84;4967338;28;5472;-58
2022/06/07 09:44:21;;;;;;;;;;;;;;;23.12;47.13;100769.91;4962001;28;4498;-59
2022/06/07 09:46:48;;;;;;;;;;;;;;;23.11;48.57;100777.81;4969000;28;4162;-59
2022/06/07 09:49:24;;;;;;;;;;;;;;;23.21;48.21;100774.53;4965852;28;5351;-60
2022/06/07 09:51:51;;;;;;;;;;;;;;;23.27;48.12;100777.59;4967048;28;4171;-59
2022/06/07 09:54:19;;;;;;;;;;;;;;;23.31;47.86;100768.34;4968655;28;5640;-59
2022/06/07 09:56:58;;;;;;;;;;;;;;;23.36;48.24;100764.16;4969723;28;4933;-60
2022/06/07 09:59:33;;;;;;;;;;;;;;;23.38;48.11;100764.97;4959179;28;4068;-59
2022/06/07 10:02:02;;;;;;;;;;;;;;;23.41;48.04;100757.13;4960403;28;5237;-59
2022/06/07 10:04:42;;;;;;;;;;;;;;;23.42;47.64;100758.59;4968534;28;4329;-60
2022/06/07 10:07:10;;;;;;;;;;;;;;;23.41;47.84;100763.63;4967741;28;4212;-59
2022/06/07 10:09:56;;;;;;;;;;;;;;;23.38;47.80;100758.47;4964433;28;4434;-57
2022/06/07 10:12:34;;;;;;;;;;;;;;;23.35;48.09;100754.78;4967703;28;4169;-59
2022/06/07 10:15:08;;;;;;;;;;;;;;;23.37;47.73;100751.94;4967381;28;5652;-60
2022/06/07 10:17:40;;;;;;;;;;;;;;;23.41;47.34;100749.19;4968795;28;4472;-60
2022/06/07 10:20:14;;;;;;;;;;;;;;;23.37;47.55;100751.22;4965218;28;5699;-60
2022/06/07 10:22:53;;;;;;;;;;;;;;;23.34;47.78;100743.88;4959324;28;4581;-58
2022/06/07 10:25:29;;;;;;;;;;;;;;;23.38;47.67;100736.06;4959625;28;4193;-59
2022/06/07 10:27:58;;;;;;;;;;;;;;;23.36;47.98;100730.22;4964903;28;5684;-58
2022/06/07 10:30:30;;;;;;;;;;;;;;;23.26;47.77;100744.34;4960690;28;4592;-61
2022/06/07 10:32:57;;;;;;;;;;;;;;;23.33;46.56;100737.38;4964175;28;5572;-62
2022/06/07 10:35:26;;;;;;;;;;;;;;;23.31;46.04;100736.56;4963591;28;4746;-60
2022/06/07 10:38:02;;;;;;;;;;;;;;;23.32;46.14;100747.44;4963238;28;6150;-59
2022/06/07 10:40:37;;;;;;;;;;;;;;;23.31;46.68;100725.00;4960685;28;5308;-60
2022/06/07 10:43:07;;;;;;;;;;;;;;;23.30;45.94;100735.84;4961735;28;5605;-60
2022/06/07 10:45:37;;;;;;;;;;;;;;;23.30;46.60;100730.06;4957759;28;5796;-61
2022/06/07 10:48:09;;;;;;;;;;;;;;;23.28;46.71;100732.88;4958788;28;4646;-61
2022/06/07 10:50:35;;;;;;;;;;;;;;;23.26;46.92;100729.19;4955741;28;4543;-61
2022/06/07 10:53:03;;;;;;;;;;;;;;;23.25;46.85;100728.44;4964764;28;4144;-62
2022/06/07 10:55:37;;;;;;;;;;;;;;;23.26;46.58;100729.91;4963361;28;5356;-62
2022/06/07 10:58:06;;;;;;;;;;;;;;;23.19;45.83;100717.41;4954272;28;4310;-59
2022/06/07 11:00:34;;;;;;;;;;;;;;;23.12;44.87;100709.97;4956997;28;5624;-59
2022/06/07 11:03:06;;;;;;;;;;;;;;;23.16;45.48;100727.44;4960140;28;4263;-61
2022/06/07 11:11:08;;;;;;;;;;;;;;;23.36;45.04;100715.06;4961033;28;4590;-65
2022/06/07 11:13:53;;;;;;;;;;;;;;;23.36;44.73;100715.78;4960171;28;4348;-67
2022/06/07 11:16:35;;;;;;;;;;;;;;;23.41;43.49;100717.41;4968335;28;4108;-68
2022/06/07 11:19:01;;;;;;;;;;;;;;;23.46;43.73;100729.09;4959413;28;4192;-64
2022/06/07 11:21:31;;;;;;;;;;;;;;;23.45;42.54;100716.06;4957448;28;4639;-64
2022/06/07 11:24:27;;;;;;;;;;;;;;;23.49;43.86;100721.97;4958507;28;4947;-62
2022/06/07 11:26:54;;;;;;;;;;;;;;;23.51;43.97;100719.13;4948240;28;4694;-62
2022/06/07 11:29:31;;;;;;;;;;;;;;;23.47;44.29;100719.75;4958360;28;4155;-61
2022/06/07 11:31:57;;;;;;;;;;;;;;;23.46;43.34;100734.88;4957730;28;4167;-62
2022/06/07 11:34:25;;;;;;;;;;;;;;;23.46;44.03;100723.31;4962915;28;4384;-61
2022/06/07 11:36:52;;;;;;;;;;;;;;;23.46;43.95;100720.44;4961491;28;4644;-61
2022/06/07 11:39:20;;;;;;;;;;;;;;;23.47;44.24;100730.56;4959336;28;5556;-61
2022/06/07 11:41:48;;;;;;;;;;;;;;;23.53;43.40;100710.53;4964513;28;5474;-63
2022/06/07 11:44:25;;;;;;;;;;;;;;;23.56;43.34;100717.84;4964304;28;4185;-64
2022/06/07 11:46:51;;;;;;;;;;;;;;;23.57;43.67;100722.19;4962926;28;4169;-63
2022/06/07 11:49:27;;;;;;;;;;;;;;;23.58;43.63;100712.84;4960311;28;4275;-63
2022/06/07 11:51:58;;;;;;;;;;;;;;;23.53;43.88;100716.31;4962981;28;4732;-61
2022/06/07 11:54:25;;;;;;;;;;;;;;;23.56;43.72;100720.72;4959675;28;4724;-63
2022/06/07 11:56:51;;;;;;;;;;;;;;;23.66;44.24;100709.47;4952630;28;5674;-61
2022/06/07 11:59:21;;;;;;;;;;;;;;;23.67;44.77;100718.91;4952889;28;5178;-60
2022/06/07 12:01:48;;;;;;;;;;;;;;;23.73;44.33;100721.97;4956500;28;4164;-60
2022/06/07 12:04:30;;;;;;;;;;;;;;;23.76;44.44;100721.38;4961059;28;4131;-58
2022/06/07 12:07:10;;;;;;;;;;;;;;;23.74;44.40;100721.31;4957286;28;4689;-64
2022/06/07 12:09:36;;;;;;;;;;;;;;;23.72;43.34;100706.78;4962876;28;4594;-65
2022/06/07 12:12:19;;;;;;;;;;;;;;;23.68;43.84;100703.03;4956230;28;5707;-61
2022/06/07 12:14:49;;;;;;;;;;;;;;;23.70;44.01;100705.97;4961784;28;4259;-63
2022/06/07 12:17:20;;;;;;;;;;;;;;;23.88;44.34;100703.66;4956206;28;5654;-63
2022/06/07 12:19:47;;;;;;;;;;;;;;;23.94;42.54;100700.94;4960875;28;4417;-59
2022/06/07 12:22:17;;;;;;;;;;;;;;;23.96;42.92;100694.47;4963370;28;4169;-59
2022/06/07 12:24:54;;;;;;;;;;;;;;;24.20;42.54;100689.38;4966432;28;6093;-61
2022/06/07 12:27:22;;;;;;;;;;;;;;;23.99;42.36;100679.41;4966592;28;4723;-60
2022/06/07 12:29:49;;;;;;;;;;;;;;;23.93;42.57;100687.16;4963579;28;4227;-65
2022/06/07 12:32:25;;;;;;;;;;;;;;;23.91;42.27;100678.44;4964684;28;4233;-65
2022/06/07 12:35:04;;;;;;;;;;;;;;;23.87;43.50;100678.31;4962710;28;4510;-59
2022/06/07 12:37:30;;;;;;;;;;;;;;;23.82;43.08;100678.19;4966034;28;4050;-59
2022/06/07 12:39:57;;;;;;;;;;;;;;;23.78;42.85;100671.56;4964275;28;4250;-58
2022/06/07 12:42:27;;;;;;;;;;;;;;;23.83;42.17;100684.72;4963707;28;5309;-60
2022/06/07 12:44:54;;;;;;;;;;;;;;;23.90;43.18;100680.59;4960739;28;5542;-62
2022/06/07 12:47:22;;;;;;;;;;;;;;;23.99;43.50;100672.88;4969282;28;4821;-62
2022/06/07 12:49:48;;;;;;;;;;;;;;;24.08;43.11;100668.81;4967794;28;4145;-61
2022/06/07 12:52:16;;;;;;;;;;;;;;;24.03;42.75;100673.00;4970256;28;4175;-61
2022/06/07 12:54:49;;;;;;;;;;;;;;;23.99;42.78;100672.88;4961176;28;4841;-63
2022/06/07 12:57:17;;;;;;;;;;;;;;;24.03;43.53;100667.22;4967511;28;5606;-63
2022/06/07 12:59:54;;;;;;;;;;;;;;;24.03;42.52;100661.44;4967517;28;4249;-62
2022/06/07 13:02:33;;;;;;;;;;;;;;;24.01;42.44;100664.25;4969895;28;4198;-62
2022/06/07 13:05:01;;;;;;;;;;;;;;;24.02;42.14;100660.69;4968245;28;4231;-62
2022/06/07 13:07:31;;;;;;;;;;;;;;;24.00;42.35;100666.41;4969383;28;4768;-62
2022/06/07 13:10:23;;;;;;;;;;;;;;;23.95;42.06;100661.19;4959764;28;5511;-64
2022/06/07 13:12:51;;;;;;;;;;;;;;;23.95;42.40;100672.75;4963624;28;5823;-62
2022/06/07 13:15:18;;;;;;;;;;;;;;;23.95;42.60;100669.88;4961910;28;5834;-60
2022/06/07 13:17:57;;;;;;;;;;;;;;;23.91;42.86;100667.59;4965480;28;5624;-63
2022/06/07 13:20:24;;;;;;;;;;;;;;;23.93;42.15;100669.81;4962771;28;5707;-61
2022/06/07 13:22:52;;;;;;;;;;;;;;;23.95;42.03;100661.94;4956800;28;5237;-62
2022/06/07 13:25:19;;;;;;;;;;;;;;;23.92;42.88;100662.56;4966102;28;4252;-61
2022/06/07 13:27:47;;;;;;;;;;;;;;;23.92;43.13;100656.78;4969179;28;4173;-60
2022/06/07 13:30:24;;;;;;;;;;;;;;;23.92;42.89;100657.50;4966749;28;4184;-62